sensor_id;sensor_type;location;lat;lon;timestamp;temperature;humidity
50738;DHT22;36703;48.154;17.126;2024-03-02T00:03:31;13.60;64.50
50738;DHT22;36703;48.154;17.126;2024-03-02T00:07:33;13.60;64.70
50738;DHT22;36703;48.154;17.126;2024-03-02T00:11:34;13.70;64.60
50738;DHT22;36703;48.154;17.126;2024-03-02T00:15:39;13.70;65.30
50738;DHT22;36703;48.154;17.126;2024-03-02T00:19:54;13.70;64.60
50738;DHT22;36703;48.154;17.126;2024-03-02T00:23:56;13.60;64.50
50738;DHT22;36703;48.154;17.126;2024-03-02T00:27:58;13.60;64.60
50738;DHT22;36703;48.154;17.126;2024-03-02T00:31:59;13.60;64.60
50738;DHT22;36703;48.154;17.126;2024-03-02T00:36:02;13.60;64.60
50738;DHT22;36703;48.154;17.126;2024-03-02T00:40:04;13.50;64.90
50738;DHT22;36703;48.154;17.126;2024-03-02T00:44:07;13.50;64.90
50738;DHT22;36703;48.154;17.126;2024-03-02T00:48:09;13.50;64.80
50738;DHT22;36703;48.154;17.126;2024-03-02T00:52:10;13.60;64.80
50738;DHT22;36703;48.154;17.126;2024-03-02T00:56:12;13.60;64.70
50738;DHT22;36703;48.154;17.126;2024-03-02T01:00:14;13.50;64.70
50738;DHT22;36703;48.154;17.126;2024-03-02T01:04:18;13.50;64.90
50738;DHT22;36703;48.154;17.126;2024-03-02T01:08:19;13.50;64.80
50738;DHT22;36703;48.154;17.126;2024-03-02T01:12:21;13.50;64.90
50738;DHT22;36703;48.154;17.126;2024-03-02T01:16:22;13.40;64.80
50738;DHT22;36703;48.154;17.126;2024-03-02T01:20:24;13.40;65.10
50738;DHT22;36703;48.154;17.126;2024-03-02T01:24:25;13.40;65.10
50738;DHT22;36703;48.154;17.126;2024-03-02T01:28:27;13.40;65.00
50738;DHT22;36703;48.154;17.126;2024-03-02T01:32:28;13.40;64.90
50738;DHT22;36703;48.154;17.126;2024-03-02T01:36:30;13.30;65.00
50738;DHT22;36703;48.154;17.126;2024-03-02T01:40:32;13.30;65.20
50738;DHT22;36703;48.154;17.126;2024-03-02T01:44:35;13.30;65.10
50738;DHT22;36703;48.154;17.126;2024-03-02T01:48:36;13.30;65.20
50738;DHT22;36703;48.154;17.126;2024-03-02T01:52:37;13.30;65.10
50738;DHT22;36703;48.154;17.126;2024-03-02T01:56:39;13.30;65.00
50738;DHT22;36703;48.154;17.126;2024-03-02T02:00:41;13.40;64.80
50738;DHT22;36703;48.154;17.126;2024-03-02T02:04:42;13.40;64.90
50738;DHT22;36703;48.154;17.126;2024-03-02T02:08:43;13.30;64.80
50738;DHT22;36703;48.154;17.126;2024-03-02T02:12:46;13.30;64.90
50738;DHT22;36703;48.154;17.126;2024-03-02T02:16:47;13.20;65.10
50738;DHT22;36703;48.154;17.126;2024-03-02T02:20:49;13.20;65.10
50738;DHT22;36703;48.154;17.126;2024-03-02T02:24:50;13.10;65.10
50738;DHT22;36703;48.154;17.126;2024-03-02T02:28:52;13.10;65.30
50738;DHT22;36703;48.154;17.126;2024-03-02T02:32:53;13.00;65.30
50738;DHT22;36703;48.154;17.126;2024-03-02T02:36:54;13.10;65.30
50738;DHT22;36703;48.154;17.126;2024-03-02T02:40:56;13.00;65.20
50738;DHT22;36703;48.154;17.126;2024-03-02T02:44:57;13.00;65.30
50738;DHT22;36703;48.154;17.126;2024-03-02T02:48:58;12.90;65.40
50738;DHT22;36703;48.154;17.126;2024-03-02T02:53:00;13.00;65.40
50738;DHT22;36703;48.154;17.126;2024-03-02T02:57:01;12.90;65.30
50738;DHT22;36703;48.154;17.126;2024-03-02T03:01:02;12.90;65.30
50738;DHT22;36703;48.154;17.126;2024-03-02T03:05:08;12.80;65.50
50738;DHT22;36703;48.154;17.126;2024-03-02T03:09:11;12.80;65.80
50738;DHT22;36703;48.154;17.126;2024-03-02T03:13:12;12.80;65.90
50738;DHT22;36703;48.154;17.126;2024-03-02T03:17:13;12.80;66.00
50738;DHT22;36703;48.154;17.126;2024-03-02T03:21:15;12.80;66.00
50738;DHT22;36703;48.154;17.126;2024-03-02T03:25:16;12.80;65.80
50738;DHT22;36703;48.154;17.126;2024-03-02T03:29:18;12.80;65.80
50738;DHT22;36703;48.154;17.126;2024-03-02T03:33:19;12.80;65.90
50738;DHT22;36703;48.154;17.126;2024-03-02T03:37:20;12.70;65.90
50738;DHT22;36703;48.154;17.126;2024-03-02T03:41:22;12.70;66.20
50738;DHT22;36703;48.154;17.126;2024-03-02T03:45:23;12.60;66.20
50738;DHT22;36703;48.154;17.126;2024-03-02T03:49:26;12.70;66.30
50738;DHT22;36703;48.154;17.126;2024-03-02T03:53:28;12.60;66.20
50738;DHT22;36703;48.154;17.126;2024-03-02T03:57:29;12.60;66.30
50738;DHT22;36703;48.154;17.126;2024-03-02T04:01:30;12.60;66.40
50738;DHT22;36703;48.154;17.126;2024-03-02T04:05:32;12.60;66.50
50738;DHT22;36703;48.154;17.126;2024-03-02T04:09:33;12.60;66.60
50738;DHT22;36703;48.154;17.126;2024-03-02T04:13:35;12.60;66.70
50738;DHT22;36703;48.154;17.126;2024-03-02T04:17:36;12.60;66.60
50738;DHT22;36703;48.154;17.126;2024-03-02T04:21:38;12.60;66.60
50738;DHT22;36703;48.154;17.126;2024-03-02T04:25:39;12.60;66.60
50738;DHT22;36703;48.154;17.126;2024-03-02T04:29:40;12.60;66.60
50738;DHT22;36703;48.154;17.126;2024-03-02T04:33:42;12.60;66.60
50738;DHT22;36703;48.154;17.126;2024-03-02T04:37:43;12.60;66.40
50738;DHT22;36703;48.154;17.126;2024-03-02T04:41:45;12.70;66.20
50738;DHT22;36703;48.154;17.126;2024-03-02T04:45:46;12.60;66.20
50738;DHT22;36703;48.154;17.126;2024-03-02T04:49:48;12.60;66.40
50738;DHT22;36703;48.154;17.126;2024-03-02T04:53:49;12.60;66.30
50738;DHT22;36703;48.154;17.126;2024-03-02T04:57:50;12.60;66.20
50738;DHT22;36703;48.154;17.126;2024-03-02T05:01:55;12.60;66.20
50738;DHT22;36703;48.154;17.126;2024-03-02T05:05:56;12.70;66.10
50738;DHT22;36703;48.154;17.126;2024-03-02T05:09:58;12.70;65.80
50738;DHT22;36703;48.154;17.126;2024-03-02T05:14:00;12.60;65.80
50738;DHT22;36703;48.154;17.126;2024-03-02T05:18:01;12.70;65.80
50738;DHT22;36703;48.154;17.126;2024-03-02T05:22:06;12.60;65.70
50738;DHT22;36703;48.154;17.126;2024-03-02T05:26:07;12.70;65.70
50738;DHT22;36703;48.154;17.126;2024-03-02T05:30:09;12.70;66.20
50738;DHT22;36703;48.154;17.126;2024-03-02T05:34:11;12.60;65.50
50738;DHT22;36703;48.154;17.126;2024-03-02T05:38:12;12.60;65.50
50738;DHT22;36703;48.154;17.126;2024-03-02T05:42:13;12.60;65.50
50738;DHT22;36703;48.154;17.126;2024-03-02T05:46:15;12.60;65.50
50738;DHT22;36703;48.154;17.126;2024-03-02T05:50:17;12.50;65.60
50738;DHT22;36703;48.154;17.126;2024-03-02T05:54:18;12.60;65.50
50738;DHT22;36703;48.154;17.126;2024-03-02T05:58:20;12.50;65.50
50738;DHT22;36703;48.154;17.126;2024-03-02T06:02:33;12.40;65.60
50738;DHT22;36703;48.154;17.126;2024-03-02T06:06:36;12.40;65.70
50738;DHT22;36703;48.154;17.126;2024-03-02T06:10:37;12.50;65.80
50738;DHT22;36703;48.154;17.126;2024-03-02T06:14:39;12.50;65.70
50738;DHT22;36703;48.154;17.126;2024-03-02T06:18:40;12.50;65.50
50738;DHT22;36703;48.154;17.126;2024-03-02T06:22:42;12.50;65.80
50738;DHT22;36703;48.154;17.126;2024-03-02T06:26:43;12.50;65.50
50738;DHT22;36703;48.154;17.126;2024-03-02T06:30:44;12.50;65.90
50738;DHT22;36703;48.154;17.126;2024-03-02T06:34:46;12.60;65.60
50738;DHT22;36703;48.154;17.126;2024-03-02T06:38:47;12.50;65.90
50738;DHT22;36703;48.154;17.126;2024-03-02T06:42:48;12.50;65.60
50738;DHT22;36703;48.154;17.126;2024-03-02T06:46:50;12.50;65.60
50738;DHT22;36703;48.154;17.126;2024-03-02T06:50:51;12.60;65.60
50738;DHT22;36703;48.154;17.126;2024-03-02T06:54:53;12.60;65.50
50738;DHT22;36703;48.154;17.126;2024-03-02T06:58:54;12.60;65.50
50738;DHT22;36703;48.154;17.126;2024-03-02T07:02:55;12.60;65.50
50738;DHT22;36703;48.154;17.126;2024-03-02T07:06:57;12.60;65.50
50738;DHT22;36703;48.154;17.126;2024-03-02T07:10:58;12.70;65.40
50738;DHT22;36703;48.154;17.126;2024-03-02T07:14:59;12.80;65.30
50738;DHT22;36703;48.154;17.126;2024-03-02T07:19:03;12.80;65.20
50738;DHT22;36703;48.154;17.126;2024-03-02T07:23:05;12.80;65.00
50738;DHT22;36703;48.154;17.126;2024-03-02T07:27:07;12.70;64.90
50738;DHT22;36703;48.154;17.126;2024-03-02T07:31:08;12.70;65.00
50738;DHT22;36703;48.154;17.126;2024-03-02T07:35:11;12.70;65.00
50738;DHT22;36703;48.154;17.126;2024-03-02T07:39:14;12.70;65.00
50738;DHT22;36703;48.154;17.126;2024-03-02T07:43:16;12.70;65.10
50738;DHT22;36703;48.154;17.126;2024-03-02T07:47:18;12.70;65.10
50738;DHT22;36703;48.154;17.126;2024-03-02T07:51:19;12.80;64.90
50738;DHT22;36703;48.154;17.126;2024-03-02T07:55:20;12.80;64.70
50738;DHT22;36703;48.154;17.126;2024-03-02T07:59:22;12.70;64.80
50738;DHT22;36703;48.154;17.126;2024-03-02T08:03:23;12.80;64.80
50738;DHT22;36703;48.154;17.126;2024-03-02T08:07:25;12.70;64.70
50738;DHT22;36703;48.154;17.126;2024-03-02T08:11:26;12.60;64.80
50738;DHT22;36703;48.154;17.126;2024-03-02T08:15:32;12.70;64.90
50738;DHT22;36703;48.154;17.126;2024-03-02T08:19:33;12.70;64.90
50738;DHT22;36703;48.154;17.126;2024-03-02T08:23:35;12.60;64.90
50738;DHT22;36703;48.154;17.126;2024-03-02T08:27:36;12.70;64.90
50738;DHT22;36703;48.154;17.126;2024-03-02T08:31:37;12.80;64.60
50738;DHT22;36703;48.154;17.126;2024-03-02T08:35:39;12.80;64.60
50738;DHT22;36703;48.154;17.126;2024-03-02T08:39:40;12.90;64.60
50738;DHT22;36703;48.154;17.126;2024-03-02T08:43:42;13.10;64.40
50738;DHT22;36703;48.154;17.126;2024-03-02T08:47:43;13.10;64.00
50738;DHT22;36703;48.154;17.126;2024-03-02T08:51:45;13.20;63.90
50738;DHT22;36703;48.154;17.126;2024-03-02T08:55:46;13.30;63.60
50738;DHT22;36703;48.154;17.126;2024-03-02T08:59:47;13.20;63.50
50738;DHT22;36703;48.154;17.126;2024-03-02T09:03:49;13.40;63.50
50738;DHT22;36703;48.154;17.126;2024-03-02T09:07:50;13.60;63.10
50738;DHT22;36703;48.154;17.126;2024-03-02T09:11:52;13.60;62.60
50738;DHT22;36703;48.154;17.126;2024-03-02T09:15:55;13.90;62.30
50738;DHT22;36703;48.154;17.126;2024-03-02T09:19:57;14.00;61.70
50738;DHT22;36703;48.154;17.126;2024-03-02T09:23:58;14.20;61.20
50738;DHT22;36703;48.154;17.126;2024-03-02T09:28:00;13.70;60.60
50738;DHT22;36703;48.154;17.126;2024-03-02T09:32:01;14.40;60.40
50738;DHT22;36703;48.154;17.126;2024-03-02T09:36:03;14.40;60.00
50738;DHT22;36703;48.154;17.126;2024-03-02T09:40:05;14.40;60.00
50738;DHT22;36703;48.154;17.126;2024-03-02T09:44:07;14.50;59.60
50738;DHT22;36703;48.154;17.126;2024-03-02T09:48:09;14.40;59.80
50738;DHT22;36703;48.154;17.126;2024-03-02T09:52:10;14.50;59.70
50738;DHT22;36703;48.154;17.126;2024-03-02T09:56:12;14.60;59.40
50738;DHT22;36703;48.154;17.126;2024-03-02T10:00:13;14.60;59.10
50738;DHT22;36703;48.154;17.126;2024-03-02T10:04:15;14.60;59.10
50738;DHT22;36703;48.154;17.126;2024-03-02T10:08:17;14.50;59.20
50738;DHT22;36703;48.154;17.126;2024-03-02T10:12:18;14.30;59.40
50738;DHT22;36703;48.154;17.126;2024-03-02T10:16:20;14.20;59.50
50738;DHT22;36703;48.154;17.126;2024-03-02T10:20:22;14.00;59.70
50738;DHT22;36703;48.154;17.126;2024-03-02T10:24:27;14.00;59.80
50738;DHT22;36703;48.154;17.126;2024-03-02T10:28:28;13.90;59.90
50738;DHT22;36703;48.154;17.126;2024-03-02T10:32:30;13.90;60.00
50738;DHT22;36703;48.154;17.126;2024-03-02T10:36:35;13.90;59.90
50738;DHT22;36703;48.154;17.126;2024-03-02T10:40:37;13.90;60.00
50738;DHT22;36703;48.154;17.126;2024-03-02T10:44:39;13.90;59.90
50738;DHT22;36703;48.154;17.126;2024-03-02T10:48:40;14.00;59.90
50738;DHT22;36703;48.154;17.126;2024-03-02T10:52:42;13.90;59.90
50738;DHT22;36703;48.154;17.126;2024-03-02T10:56:44;13.80;59.90
50738;DHT22;36703;48.154;17.126;2024-03-02T11:00:48;13.70;60.20
50738;DHT22;36703;48.154;17.126;2024-03-02T11:04:50;13.70;60.30
50738;DHT22;36703;48.154;17.126;2024-03-02T11:08:55;13.70;60.30
50738;DHT22;36703;48.154;17.126;2024-03-02T11:13:00;13.80;60.60
50738;DHT22;36703;48.154;17.126;2024-03-02T11:17:03;13.70;60.30
50738;DHT22;36703;48.154;17.126;2024-03-02T11:21:05;13.60;60.50
50738;DHT22;36703;48.154;17.126;2024-03-02T11:25:11;13.70;60.60
50738;DHT22;36703;48.154;17.126;2024-03-02T11:33:55;13.60;60.70
50738;DHT22;36703;48.154;17.126;2024-03-02T11:37:56;13.60;60.80
50738;DHT22;36703;48.154;17.126;2024-03-02T11:41:59;13.60;61.10
50738;DHT22;36703;48.154;17.126;2024-03-02T11:46:01;13.50;61.30
50738;DHT22;36703;48.154;17.126;2024-03-02T11:50:05;13.50;61.50
50738;DHT22;36703;48.154;17.126;2024-03-02T11:54:07;13.50;61.70
50738;DHT22;36703;48.154;17.126;2024-03-02T11:58:10;13.50;61.70
50738;DHT22;36703;48.154;17.126;2024-03-02T12:02:16;13.40;61.80
50738;DHT22;36703;48.154;17.126;2024-03-02T12:06:19;13.50;61.80
50738;DHT22;36703;48.154;17.126;2024-03-02T12:10:22;13.40;61.70
50738;DHT22;36703;48.154;17.126;2024-03-02T12:14:23;13.50;61.90
50738;DHT22;36703;48.154;17.126;2024-03-02T12:18:25;13.40;61.90
50738;DHT22;36703;48.154;17.126;2024-03-02T12:22:26;13.50;62.00
50738;DHT22;36703;48.154;17.126;2024-03-02T12:26:27;13.50;61.90
50738;DHT22;36703;48.154;17.126;2024-03-02T12:30:30;13.50;62.00
50738;DHT22;36703;48.154;17.126;2024-03-02T12:34:33;13.60;61.90
50738;DHT22;36703;48.154;17.126;2024-03-02T12:38:34;13.50;62.20
50738;DHT22;36703;48.154;17.126;2024-03-02T12:42:36;13.50;62.20
50738;DHT22;36703;48.154;17.126;2024-03-02T12:46:37;13.60;62.30
50738;DHT22;36703;48.154;17.126;2024-03-02T12:50:39;13.50;62.20
50738;DHT22;36703;48.154;17.126;2024-03-02T12:54:40;13.50;62.40
50738;DHT22;36703;48.154;17.126;2024-03-02T12:58:42;13.50;62.40
50738;DHT22;36703;48.154;17.126;2024-03-02T13:02:43;13.50;62.50
50738;DHT22;36703;48.154;17.126;2024-03-02T13:06:46;13.50;62.40
50738;DHT22;36703;48.154;17.126;2024-03-02T13:10:48;13.50;62.40
50738;DHT22;36703;48.154;17.126;2024-03-02T13:14:51;13.60;62.40
50738;DHT22;36703;48.154;17.126;2024-03-02T13:18:53;13.50;62.60
50738;DHT22;36703;48.154;17.126;2024-03-02T13:22:54;13.50;62.60
50738;DHT22;36703;48.154;17.126;2024-03-02T13:26:55;13.50;62.60
50738;DHT22;36703;48.154;17.126;2024-03-02T13:30:59;13.50;62.60
50738;DHT22;36703;48.154;17.126;2024-03-02T13:35:00;13.50;62.60
50738;DHT22;36703;48.154;17.126;2024-03-02T13:39:01;13.40;63.00
50738;DHT22;36703;48.154;17.126;2024-03-02T13:43:03;13.30;63.00
50738;DHT22;36703;48.154;17.126;2024-03-02T13:47:05;13.30;63.20
50738;DHT22;36703;48.154;17.126;2024-03-02T13:51:06;13.30;63.40
50738;DHT22;36703;48.154;17.126;2024-03-02T13:55:08;13.30;63.40
50738;DHT22;36703;48.154;17.126;2024-03-02T13:59:09;13.30;63.40
50738;DHT22;36703;48.154;17.126;2024-03-02T14:03:10;13.40;63.40
50738;DHT22;36703;48.154;17.126;2024-03-02T14:07:12;13.40;63.30
50738;DHT22;36703;48.154;17.126;2024-03-02T14:11:13;14.50;64.00
50738;DHT22;36703;48.154;17.126;2024-03-02T14:15:16;13.30;63.30
50738;DHT22;36703;48.154;17.126;2024-03-02T14:19:17;13.30;63.40
50738;DHT22;36703;48.154;17.126;2024-03-02T14:23:18;13.40;63.70
50738;DHT22;36703;48.154;17.126;2024-03-02T14:27:23;13.40;63.30
50738;DHT22;36703;48.154;17.126;2024-03-02T14:31:24;13.40;63.30
50738;DHT22;36703;48.154;17.126;2024-03-02T14:35:25;13.40;63.90
50738;DHT22;36703;48.154;17.126;2024-03-02T14:39:29;13.30;63.50
50738;DHT22;36703;48.154;17.126;2024-03-02T14:43:34;13.40;63.60
50738;DHT22;36703;48.154;17.126;2024-03-02T14:47:35;13.40;63.60
50738;DHT22;36703;48.154;17.126;2024-03-02T14:51:37;13.40;63.70
50738;DHT22;36703;48.154;17.126;2024-03-02T14:55:38;13.40;63.70
50738;DHT22;36703;48.154;17.126;2024-03-02T14:59:40;13.30;64.00
50738;DHT22;36703;48.154;17.126;2024-03-02T15:03:41;13.30;64.10
50738;DHT22;36703;48.154;17.126;2024-03-02T15:07:42;13.20;64.40
50738;DHT22;36703;48.154;17.126;2024-03-02T15:11:44;13.20;64.50
50738;DHT22;36703;48.154;17.126;2024-03-02T15:15:45;13.30;65.00
50738;DHT22;36703;48.154;17.126;2024-03-02T15:19:47;13.30;64.50
50738;DHT22;36703;48.154;17.126;2024-03-02T15:23:48;13.30;64.70
50738;DHT22;36703;48.154;17.126;2024-03-02T15:27:49;13.30;64.90
50738;DHT22;36703;48.154;17.126;2024-03-02T15:31:51;13.30;64.70
50738;DHT22;36703;48.154;17.126;2024-03-02T15:35:52;13.20;65.80
50738;DHT22;36703;48.154;17.126;2024-03-02T15:39:54;13.10;65.40
50738;DHT22;36703;48.154;17.126;2024-03-02T15:43:55;13.10;65.70
50738;DHT22;36703;48.154;17.126;2024-03-02T15:47:56;13.10;65.70
50738;DHT22;36703;48.154;17.126;2024-03-02T15:51:58;13.20;65.60
50738;DHT22;36703;48.154;17.126;2024-03-02T15:56:01;13.20;65.60
50738;DHT22;36703;48.154;17.126;2024-03-02T16:00:03;13.20;65.60
50738;DHT22;36703;48.154;17.126;2024-03-02T16:04:12;13.20;65.50
50738;DHT22;36703;48.154;17.126;2024-03-02T16:08:13;13.20;65.50
50738;DHT22;36703;48.154;17.126;2024-03-02T16:12:15;13.20;65.40
50738;DHT22;36703;48.154;17.126;2024-03-02T16:16:16;13.20;65.50
50738;DHT22;36703;48.154;17.126;2024-03-02T16:20:18;13.10;65.60
50738;DHT22;36703;48.154;17.126;2024-03-02T16:24:19;13.20;65.70
50738;DHT22;36703;48.154;17.126;2024-03-02T16:28:21;13.10;65.80
50738;DHT22;36703;48.154;17.126;2024-03-02T16:32:22;13.10;65.90
50738;DHT22;36703;48.154;17.126;2024-03-02T16:36:23;13.00;66.10
50738;DHT22;36703;48.154;17.126;2024-03-02T16:40:25;13.00;66.10
50738;DHT22;36703;48.154;17.126;2024-03-02T16:44:26;13.10;66.10
50738;DHT22;36703;48.154;17.126;2024-03-02T16:48:27;13.10;66.10
50738;DHT22;36703;48.154;17.126;2024-03-02T16:52:29;13.10;66.30
50738;DHT22;36703;48.154;17.126;2024-03-02T16:56:37;13.10;66.40
50738;DHT22;36703;48.154;17.126;2024-03-02T17:00:39;13.10;66.20
50738;DHT22;36703;48.154;17.126;2024-03-02T17:04:41;13.10;66.20
50738;DHT22;36703;48.154;17.126;2024-03-02T17:08:43;13.10;66.40
50738;DHT22;36703;48.154;17.126;2024-03-02T17:12:44;13.10;66.40
50738;DHT22;36703;48.154;17.126;2024-03-02T17:16:45;13.00;66.60
50738;DHT22;36703;48.154;17.126;2024-03-02T17:20:47;13.00;66.50
50738;DHT22;36703;48.154;17.126;2024-03-02T17:24:48;13.10;66.80
50738;DHT22;36703;48.154;17.126;2024-03-02T17:28:49;13.10;66.70
50738;DHT22;36703;48.154;17.126;2024-03-02T17:32:51;13.10;66.70
50738;DHT22;36703;48.154;17.126;2024-03-02T17:36:52;13.00;66.80
50738;DHT22;36703;48.154;17.126;2024-03-02T17:40:53;13.00;66.90
50738;DHT22;36703;48.154;17.126;2024-03-02T17:44:55;13.10;67.00
50738;DHT22;36703;48.154;17.126;2024-03-02T17:48:56;13.00;66.90
50738;DHT22;36703;48.154;17.126;2024-03-02T17:52:58;13.10;67.00
50738;DHT22;36703;48.154;17.126;2024-03-02T17:56:59;13.00;67.10
50738;DHT22;36703;48.154;17.126;2024-03-02T18:01:00;13.00;67.10
50738;DHT22;36703;48.154;17.126;2024-03-02T18:05:02;13.00;67.30
50738;DHT22;36703;48.154;17.126;2024-03-02T18:09:05;13.00;67.30
50738;DHT22;36703;48.154;17.126;2024-03-02T18:13:08;12.90;67.40
50738;DHT22;36703;48.154;17.126;2024-03-02T18:17:09;13.00;67.50
50738;DHT22;36703;48.154;17.126;2024-03-02T18:21:10;13.00;67.50
50738;DHT22;36703;48.154;17.126;2024-03-02T18:25:12;13.00;67.40
50738;DHT22;36703;48.154;17.126;2024-03-02T18:29:13;13.00;67.50
50738;DHT22;36703;48.154;17.126;2024-03-02T18:33:17;12.90;67.60
50738;DHT22;36703;48.154;17.126;2024-03-02T18:37:19;12.90;67.80
50738;DHT22;36703;48.154;17.126;2024-03-02T18:41:22;13.00;67.80
50738;DHT22;36703;48.154;17.126;2024-03-02T18:45:24;12.90;67.80
50738;DHT22;36703;48.154;17.126;2024-03-02T18:49:27;12.90;67.90
50738;DHT22;36703;48.154;17.126;2024-03-02T18:53:28;12.80;68.00
50738;DHT22;36703;48.154;17.126;2024-03-02T18:57:30;12.80;68.20
50738;DHT22;36703;48.154;17.126;2024-03-02T19:01:31;12.70;68.30
50738;DHT22;36703;48.154;17.126;2024-03-02T19:05:33;12.70;68.30
50738;DHT22;36703;48.154;17.126;2024-03-02T19:09:34;12.80;68.50
50738;DHT22;36703;48.154;17.126;2024-03-02T19:13:36;12.80;68.40
50738;DHT22;36703;48.154;17.126;2024-03-02T19:17:37;12.80;68.50
50738;DHT22;36703;48.154;17.126;2024-03-02T19:21:39;12.70;68.60
50738;DHT22;36703;48.154;17.126;2024-03-02T19:25:40;12.80;68.90
50738;DHT22;36703;48.154;17.126;2024-03-02T19:29:42;12.80;68.50
50738;DHT22;36703;48.154;17.126;2024-03-02T19:33:43;12.80;68.40
50738;DHT22;36703;48.154;17.126;2024-03-02T19:37:45;12.80;68.30
50738;DHT22;36703;48.154;17.126;2024-03-02T19:41:47;12.80;68.40
50738;DHT22;36703;48.154;17.126;2024-03-02T19:45:48;12.70;68.80
50738;DHT22;36703;48.154;17.126;2024-03-02T19:49:50;12.70;68.50
50738;DHT22;36703;48.154;17.126;2024-03-02T19:53:51;12.70;68.50
50738;DHT22;36703;48.154;17.126;2024-03-02T19:57:52;12.60;68.50
50738;DHT22;36703;48.154;17.126;2024-03-02T20:01:54;12.60;68.80
50738;DHT22;36703;48.154;17.126;2024-03-02T20:05:55;12.60;68.80
50738;DHT22;36703;48.154;17.126;2024-03-02T20:09:56;12.70;68.80
50738;DHT22;36703;48.154;17.126;2024-03-02T20:13:58;12.60;68.70
50738;DHT22;36703;48.154;17.126;2024-03-02T20:17:59;12.60;68.60
50738;DHT22;36703;48.154;17.126;2024-03-02T20:22:03;12.70;68.60
50738;DHT22;36703;48.154;17.126;2024-03-02T20:26:04;12.50;68.60
50738;DHT22;36703;48.154;17.126;2024-03-02T20:30:06;12.50;68.70
50738;DHT22;36703;48.154;17.126;2024-03-02T20:34:10;12.50;68.60
50738;DHT22;36703;48.154;17.126;2024-03-02T20:38:11;12.50;68.60
50738;DHT22;36703;48.154;17.126;2024-03-02T20:42:12;12.50;68.40
50738;DHT22;36703;48.154;17.126;2024-03-02T20:46:14;12.50;68.40
50738;DHT22;36703;48.154;17.126;2024-03-02T20:50:15;12.50;68.40
50738;DHT22;36703;48.154;17.126;2024-03-02T20:54:17;12.40;68.50
50738;DHT22;36703;48.154;17.126;2024-03-02T20:58:19;12.40;68.50
50738;DHT22;36703;48.154;17.126;2024-03-02T21:02:20;12.30;68.40
50738;DHT22;36703;48.154;17.126;2024-03-02T21:06:22;12.30;68.70
50738;DHT22;36703;48.154;17.126;2024-03-02T21:10:23;12.30;68.50
50738;DHT22;36703;48.154;17.126;2024-03-02T21:14:25;12.30;68.60
50738;DHT22;36703;48.154;17.126;2024-03-02T21:18:26;12.30;68.50
50738;DHT22;36703;48.154;17.126;2024-03-02T21:22:27;12.30;68.40
50738;DHT22;36703;48.154;17.126;2024-03-02T21:26:29;12.30;68.30
50738;DHT22;36703;48.154;17.126;2024-03-02T21:30:30;12.30;68.50
50738;DHT22;36703;48.154;17.126;2024-03-02T21:34:33;12.20;68.30
50738;DHT22;36703;48.154;17.126;2024-03-02T21:38:34;12.20;68.30
50738;DHT22;36703;48.154;17.126;2024-03-02T21:42:36;12.10;68.30
50738;DHT22;36703;48.154;17.126;2024-03-02T21:46:37;12.10;68.50
50738;DHT22;36703;48.154;17.126;2024-03-02T21:50:39;12.00;68.60
50738;DHT22;36703;48.154;17.126;2024-03-02T21:54:40;12.00;68.50
50738;DHT22;36703;48.154;17.126;2024-03-02T21:58:41;12.00;68.60
50738;DHT22;36703;48.154;17.126;2024-03-02T22:02:43;12.00;68.60
50738;DHT22;36703;48.154;17.126;2024-03-02T22:06:45;12.00;68.60
50738;DHT22;36703;48.154;17.126;2024-03-02T22:10:46;12.00;68.40
50738;DHT22;36703;48.154;17.126;2024-03-02T22:14:47;12.00;68.20
50738;DHT22;36703;48.154;17.126;2024-03-02T22:18:49;12.00;68.20
50738;DHT22;36703;48.154;17.126;2024-03-02T22:22:50;12.10;68.10
50738;DHT22;36703;48.154;17.126;2024-03-02T22:26:52;12.10;68.00
50738;DHT22;36703;48.154;17.126;2024-03-02T22:30:53;12.10;67.80
50738;DHT22;36703;48.154;17.126;2024-03-02T22:34:55;12.00;68.00
50738;DHT22;36703;48.154;17.126;2024-03-02T22:38:56;12.00;68.20
50738;DHT22;36703;48.154;17.126;2024-03-02T22:42:57;12.00;68.00
50738;DHT22;36703;48.154;17.126;2024-03-02T22:46:59;12.00;68.00
50738;DHT22;36703;48.154;17.126;2024-03-02T22:51:00;12.00;68.00
50738;DHT22;36703;48.154;17.126;2024-03-02T22:55:02;11.90;68.00
50738;DHT22;36703;48.154;17.126;2024-03-02T22:59:03;11.90;68.20
50738;DHT22;36703;48.154;17.126;2024-03-02T23:03:05;11.90;68.20
50738;DHT22;36703;48.154;17.126;2024-03-02T23:07:06;11.90;68.00
50738;DHT22;36703;48.154;17.126;2024-03-02T23:11:08;11.90;67.90
50738;DHT22;36703;48.154;17.126;2024-03-02T23:15:09;11.90;68.00
50738;DHT22;36703;48.154;17.126;2024-03-02T23:19:11;11.90;68.20
50738;DHT22;36703;48.154;17.126;2024-03-02T23:23:14;11.90;68.20
50738;DHT22;36703;48.154;17.126;2024-03-02T23:27:16;11.90;68.10
50738;DHT22;36703;48.154;17.126;2024-03-02T23:31:17;11.80;68.00
50738;DHT22;36703;48.154;17.126;2024-03-02T23:35:19;11.90;68.10
50738;DHT22;36703;48.154;17.126;2024-03-02T23:39:20;11.90;68.00
50738;DHT22;36703;48.154;17.126;2024-03-02T23:43:40;11.80;68.00
50738;DHT22;36703;48.154;17.126;2024-03-02T23:47:42;11.80;68.20
50738;DHT22;36703;48.154;17.126;2024-03-02T23:51:43;11.70;68.10
50738;DHT22;36703;48.154;17.126;2024-03-02T23:55:44;11.70;68.30
50738;DHT22;36703;48.154;17.126;2024-03-02T23:59:46;11.70;68.30
